createdAt,value
2019-02-15T00:03:49.725Z,102878.08
2019-02-15T00:08:54.973Z,102873.59
2019-02-15T00:14:00.238Z,102879.07
2019-02-15T00:19:07.221Z,102874.37
2019-02-15T00:24:12.419Z,102877.00
2019-02-15T00:29:18.225Z,102867.48
2019-02-15T00:34:23.933Z,102863.25
2019-02-15T00:39:29.283Z,102869.84
2019-02-15T00:44:34.830Z,102869.27
2019-02-15T00:49:41.942Z,102874.92
2019-02-15T00:55:05.450Z,102878.94
2019-02-15T01:00:21.436Z,102879.78
2019-02-15T01:05:45.021Z,102892.30
2019-02-15T01:10:52.018Z,102885.86
2019-02-15T01:15:57.576Z,102881.71
2019-02-15T01:21:02.946Z,102881.57
2019-02-15T01:26:09.948Z,102887.16
2019-02-15T01:31:19.703Z,102887.27
2019-02-15T01:36:32.721Z,102876.24
2019-02-15T01:41:41.911Z,102888.59
2019-02-15T01:46:51.139Z,102883.41
2019-02-15T01:51:56.461Z,102887.83
2019-02-15T01:57:02.065Z,102895.33
2019-02-15T02:02:07.841Z,102893.16
2019-02-15T02:07:13.183Z,102908.20
2019-02-15T02:12:18.437Z,102869.38
2019-02-15T02:17:23.866Z,102891.55
2019-02-15T02:22:29.277Z,102886.92
2019-02-15T02:27:34.713Z,102888.79
2019-02-15T02:32:40.190Z,102890.06
2019-02-15T02:37:45.585Z,102883.58
2019-02-15T02:42:51.020Z,102883.77
2019-02-15T02:47:56.466Z,102890.64
2019-02-15T02:53:01.738Z,102894.54
2019-02-15T02:58:07.184Z,102884.63
2019-02-15T03:03:12.542Z,102889.98
2019-02-15T03:08:17.946Z,102895.05
2019-02-15T03:13:23.047Z,102887.81
2019-02-15T03:18:28.272Z,102885.28
2019-02-15T03:23:33.399Z,102885.50
2019-02-15T03:28:39.024Z,102888.70
2019-02-15T03:33:44.329Z,102889.36
2019-02-15T03:38:53.838Z,102895.90
2019-02-15T03:43:59.206Z,102881.83
2019-02-15T03:49:04.682Z,102881.20
2019-02-15T03:54:09.971Z,102873.70
2019-02-15T03:59:15.290Z,102884.64
2019-02-15T04:04:20.633Z,102872.70
2019-02-15T04:09:26.014Z,102870.14
2019-02-15T04:14:33.079Z,102872.62
2019-02-15T04:19:38.138Z,102868.42
2019-02-15T04:24:43.188Z,102869.77
2019-02-15T04:29:48.398Z,102858.05
2019-02-15T04:34:53.814Z,102857.84
2019-02-15T04:39:59.389Z,102856.27
2019-02-15T04:45:06.829Z,102864.89
2019-02-15T04:50:12.258Z,102858.97
2019-02-15T04:55:17.642Z,102871.87
2019-02-15T05:00:22.860Z,102853.25
2019-02-15T05:05:28.210Z,102853.75
2019-02-15T05:10:33.591Z,102859.27
2019-02-15T05:15:38.936Z,102862.08
2019-02-15T05:20:44.302Z,102848.23
2019-02-15T05:25:49.675Z,102850.67
2019-02-15T05:30:55.114Z,102844.44
2019-02-15T05:36:00.379Z,102837.84
2019-02-15T05:41:05.540Z,102838.86
2019-02-15T05:46:10.883Z,102835.97
2019-02-15T05:51:16.152Z,102844.97
2019-02-15T05:56:21.491Z,102845.60
2019-02-15T06:01:27.665Z,102863.34
2019-02-15T06:06:32.932Z,102864.95
2019-02-15T06:11:38.286Z,102862.79
2019-02-15T06:16:43.549Z,102878.45
2019-02-15T06:21:48.903Z,102879.61
2019-02-15T06:26:54.124Z,102878.09
2019-02-15T06:32:00.424Z,102877.05
2019-02-15T06:37:05.716Z,102893.72
2019-02-15T06:42:11.152Z,102885.84
2019-02-15T06:47:16.449Z,102876.75
2019-02-15T06:52:21.774Z,102884.80
2019-02-15T06:57:27.164Z,102879.75
2019-02-15T07:02:34.224Z,102886.84
2019-02-15T07:07:39.489Z,102892.61
2019-02-15T07:12:44.753Z,102887.98
2019-02-15T07:17:50.307Z,102889.92
2019-02-15T07:22:55.551Z,102902.02
2019-02-15T07:28:00.901Z,102911.74
2019-02-15T07:33:06.540Z,102910.70
2019-02-15T07:38:12.164Z,102888.00
2019-02-15T07:43:18.450Z,102895.81
2019-02-15T07:48:23.796Z,102883.28
2019-02-15T07:53:29.212Z,102877.92
2019-02-15T07:58:35.190Z,102882.02
2019-02-15T08:03:40.269Z,102883.66
2019-02-15T08:08:45.516Z,102873.47
2019-02-15T08:13:50.781Z,102894.55
2019-02-15T08:18:56.038Z,102895.81
2019-02-15T08:24:01.122Z,102879.98
2019-02-15T08:29:06.462Z,102901.00
2019-02-15T08:34:11.844Z,102896.52
2019-02-15T08:39:18.403Z,102907.86
2019-02-15T08:44:23.949Z,102897.14
2019-02-15T08:49:29.344Z,102900.53
2019-02-15T08:54:35.007Z,102899.17
2019-02-15T08:59:40.221Z,102905.36
2019-02-15T09:04:46.430Z,102918.16
2019-02-15T09:09:51.493Z,102915.22
2019-02-15T09:14:56.744Z,102932.77
2019-02-15T09:20:02.198Z,102925.77
2019-02-15T09:25:09.535Z,102923.51
2019-02-15T09:30:15.776Z,102920.47
2019-02-15T09:35:21.268Z,102943.08
2019-02-15T09:40:26.420Z,102948.94
2019-02-15T09:45:33.014Z,102942.70
2019-02-15T09:50:38.536Z,102957.45
2019-02-15T09:55:43.648Z,102946.14
2019-02-15T10:00:48.951Z,102940.95
2019-02-15T10:05:54.314Z,102936.27
2019-02-15T10:10:59.561Z,102938.58
2019-02-15T10:16:04.643Z,102927.17
2019-02-15T10:21:09.877Z,102935.29
2019-02-15T10:26:15.081Z,102936.09
2019-02-15T10:31:20.481Z,102949.44
2019-02-15T10:36:25.611Z,102965.63
2019-02-15T10:41:31.029Z,102960.95
2019-02-15T10:46:38.009Z,102958.87
2019-02-15T10:51:43.794Z,102951.63
2019-02-15T10:56:49.227Z,102956.17
2019-02-15T11:01:54.806Z,102952.71
2019-02-15T11:07:01.383Z,102953.44
2019-02-15T11:12:06.960Z,102958.63
2019-02-15T11:17:12.076Z,102954.07
2019-02-15T11:22:17.566Z,102954.43
2019-02-15T11:27:22.898Z,102943.12
2019-02-15T11:32:28.230Z,102944.03
2019-02-15T11:37:33.618Z,102936.35
2019-02-15T11:42:38.903Z,102944.25
2019-02-15T11:47:44.469Z,102945.88
2019-02-15T11:52:49.826Z,102937.66
2019-02-15T11:57:55.084Z,102939.39
2019-02-15T12:03:00.243Z,102924.84
2019-02-15T12:08:05.599Z,102921.14
2019-02-15T12:13:10.987Z,102935.52
2019-02-15T12:18:16.510Z,102928.08
2019-02-15T12:23:22.483Z,102925.48
2019-02-15T12:28:27.947Z,102930.95
2019-02-15T12:33:33.301Z,102931.65
2019-02-15T12:38:38.565Z,102915.73
2019-02-15T12:43:43.822Z,102919.56
2019-02-15T12:48:49.068Z,102917.84
2019-02-15T12:53:54.583Z,102912.20
2019-02-15T12:58:59.644Z,102910.34
2019-02-15T13:04:04.938Z,102918.83
2019-02-15T13:09:10.322Z,102903.73
2019-02-15T13:14:15.872Z,102898.34
2019-02-15T13:19:21.435Z,102892.62
2019-02-15T13:24:26.643Z,102890.92
2019-02-15T13:29:31.797Z,102886.47
2019-02-15T13:34:37.277Z,102883.72
2019-02-15T13:39:42.663Z,102878.92
2019-02-15T13:44:48.053Z,102885.58
2019-02-15T13:49:53.201Z,102883.45
2019-02-15T13:54:58.575Z,102884.73
2019-02-15T14:00:04.249Z,102889.41
2019-02-15T14:05:11.628Z,102877.86
2019-02-15T14:10:16.983Z,102882.93
2019-02-15T14:15:23.652Z,102860.42
2019-02-15T14:20:29.328Z,102857.16
2019-02-15T14:25:34.685Z,102856.66
2019-02-15T14:30:40.272Z,102852.44
2019-02-15T14:35:46.012Z,102853.06
2019-02-15T14:40:51.465Z,102848.02
2019-02-15T14:45:56.724Z,102842.22
2019-02-15T14:51:01.890Z,102845.12
2019-02-15T14:56:07.202Z,102847.83
2019-02-15T15:01:12.393Z,102858.31
2019-02-15T15:06:17.859Z,102855.83
2019-02-15T15:11:23.985Z,102853.03
2019-02-15T15:16:30.304Z,102851.06
2019-02-15T15:21:35.567Z,102854.95
2019-02-15T15:26:40.728Z,102844.66
2019-02-15T15:31:48.713Z,102849.91
2019-02-15T15:36:54.409Z,102848.72
2019-02-15T15:41:59.560Z,102861.31
2019-02-15T15:47:05.444Z,102856.53
2019-02-15T15:52:10.854Z,102855.30
2019-02-15T15:57:16.248Z,102843.27
2019-02-15T16:02:21.503Z,102843.77
2019-02-15T16:07:26.963Z,102857.91
2019-02-15T16:12:32.095Z,102849.32
2019-02-15T16:17:37.796Z,102850.89
2019-02-15T16:22:43.142Z,102855.59
2019-02-15T16:27:48.507Z,102858.00
2019-02-15T16:32:53.676Z,102862.45
2019-02-15T16:37:59.132Z,102866.67
2019-02-15T16:43:04.473Z,102857.09
2019-02-15T16:48:09.915Z,102855.41
2019-02-15T16:53:15.609Z,102848.85
2019-02-15T16:58:20.972Z,102852.29
2019-02-15T17:03:26.454Z,102851.61
2019-02-15T17:08:31.990Z,102848.28
2019-02-15T17:13:37.361Z,102838.73
2019-02-15T17:18:51.144Z,102841.88
2019-02-15T17:23:49.498Z,102844.24
2019-02-15T17:28:54.990Z,102841.77
2019-02-15T17:34:00.216Z,102843.13
2019-02-15T17:39:06.303Z,102846.91
2019-02-15T17:44:12.781Z,102833.64
2019-02-15T17:49:18.033Z,102826.34
2019-02-15T17:54:23.287Z,102828.70
2019-02-15T17:59:28.536Z,102822.07
2019-02-15T18:04:34.024Z,102814.91
2019-02-15T18:09:39.397Z,102821.03
2019-02-15T18:14:44.653Z,102821.73
2019-02-15T18:19:49.724Z,102814.53
2019-02-15T18:24:54.902Z,102811.78
2019-02-15T18:29:59.984Z,102807.00
2019-02-15T18:35:05.884Z,102817.11
2019-02-15T18:40:11.739Z,102806.88
2019-02-15T18:45:17.385Z,102796.45
2019-02-15T18:50:22.868Z,102797.40
2019-02-15T18:55:28.124Z,102792.87
2019-02-15T19:00:33.468Z,102794.55
2019-02-15T19:05:38.718Z,102789.23
2019-02-15T19:10:43.987Z,102791.06
2019-02-15T19:15:49.752Z,102771.61
2019-02-15T19:20:55.139Z,102773.81
2019-02-15T19:26:01.592Z,102780.28
2019-02-15T19:31:07.255Z,102776.18
2019-02-15T19:36:12.712Z,102759.28
2019-02-15T19:41:17.979Z,102759.17
2019-02-15T19:46:23.446Z,102762.09
2019-02-15T19:51:28.908Z,102752.78
2019-02-15T19:56:34.160Z,102751.15
2019-02-15T20:01:39.609Z,102753.36
2019-02-15T20:06:44.769Z,102758.14
2019-02-15T20:11:50.342Z,102749.59
2019-02-15T20:16:55.789Z,102745.56
2019-02-15T20:22:01.457Z,102748.64
2019-02-15T20:27:06.537Z,102744.60
2019-02-15T20:32:11.965Z,102739.96
2019-02-15T20:37:18.353Z,102740.83
2019-02-15T20:42:23.557Z,102740.83
2019-02-15T20:47:28.670Z,102735.45
2019-02-15T20:52:33.929Z,102750.73
2019-02-15T20:57:39.538Z,102755.41
2019-02-15T21:02:44.960Z,102738.89
2019-02-15T21:07:50.932Z,102741.35
2019-02-15T21:12:56.378Z,102737.97
2019-02-15T21:18:01.536Z,102742.16
2019-02-15T21:23:07.000Z,102733.39
2019-02-15T21:28:12.245Z,102733.80
2019-02-15T21:33:17.405Z,102726.59
2019-02-15T21:38:22.842Z,102730.88
2019-02-15T21:43:28.134Z,102732.05
2019-02-15T21:48:33.370Z,102724.46
2019-02-15T21:53:38.851Z,102719.44
2019-02-15T21:58:44.206Z,102724.37
2019-02-15T22:03:49.543Z,102726.16
2019-02-15T22:08:55.421Z,102724.36
2019-02-15T22:14:01.207Z,102726.44
2019-02-15T22:19:06.753Z,102728.20
2019-02-15T22:24:11.943Z,102721.11
2019-02-15T22:29:16.998Z,102722.14
2019-02-15T22:34:22.328Z,102710.79
2019-02-15T22:39:27.489Z,102707.98
2019-02-15T22:44:33.235Z,102711.34
2019-02-15T22:49:43.259Z,102705.92
2019-02-15T22:54:45.780Z,102705.16
2019-02-15T22:59:51.218Z,102707.36
2019-02-15T23:04:56.836Z,102710.72
2019-02-15T23:10:02.314Z,102706.98
2019-02-15T23:15:08.249Z,102706.48
2019-02-15T23:20:13.631Z,102703.28
2019-02-15T23:25:19.043Z,102699.55
2019-02-15T23:30:24.574Z,102686.66
2019-02-15T23:35:29.804Z,102687.68
2019-02-15T23:45:39.261Z,102697.30
2019-02-15T23:50:44.439Z,102697.45
2019-02-15T23:55:49.677Z,102694.59
